Time;durP1;ratioP1;P1;durP2;ratioP2;P2;SDS_P1;SDS_P2;PMS_P1;PMS_P2;Temp;Humidity;BMP_temperature;BMP_pressure;BME280_temperature;BME280_humidity;BME280_pressure;Samples;Min_cycle;Max_cycle;Signal;HPM_P1;HPM_P2
2022/05/20 00:05:32;;;;;;;1.80;1.25;;;;;;;;;;12593548;28;20032;-79
2022/05/20 00:11:33;;;;;;;2.13;1.40;;;;;;;;;;12594115;28;20040;-79
2022/05/20 00:17:35;;;;;;;1.52;1.42;;;;;;;;;;12559743;28;20037;-79
2022/05/20 00:23:37;;;;;;;1.85;1.52;;;;;;;;;;12575953;28;20048;-79
2022/05/20 00:29:39;;;;;;;2.42;1.20;;;;;;;;;;12575062;28;20036;-79
2022/05/20 00:35:41;;;;;;;1.50;1.30;;;;;;;;;;12574663;28;20063;-79
2022/05/20 00:41:43;;;;;;;1.58;1.27;;;;;;;;;;12574523;28;20044;-79
2022/05/20 00:47:44;;;;;;;1.35;1.23;;;;;;;;;;12574584;28;20516;-79
2022/05/20 00:53:59;;;;;;;1.75;1.42;;;;;;;;;;12574364;28;20037;-79
2022/05/20 01:00:04;;;;;;;1.52;1.30;;;;;;;;;;12580928;28;20035;-78
2022/05/20 01:06:08;;;;;;;1.30;1.20;;;;;;;;;;12600704;28;20036;-79
2022/05/20 01:12:10;;;;;;;1.27;1.17;;;;;;;;;;12582383;28;20036;-79
2022/05/20 01:18:13;;;;;;;2.10;1.30;;;;;;;;;;12582077;28;20048;-79
2022/05/20 01:24:14;;;;;;;1.55;1.42;;;;;;;;;;12581746;28;20029;-79
2022/05/20 01:30:18;;;;;;;1.75;1.45;;;;;;;;;;12581970;28;20417;-79
2022/05/20 01:36:22;;;;;;;2.20;1.30;;;;;;;;;;12581395;28;20052;-79
2022/05/20 01:42:29;;;;;;;2.33;1.50;;;;;;;;;;12580989;28;20028;-79
2022/05/20 01:48:34;;;;;;;2.05;1.35;;;;;;;;;;12598878;28;20490;-79
2022/05/20 01:54:36;;;;;;;2.75;1.50;;;;;;;;;;12563992;28;20040;-79
2022/05/20 02:00:39;;;;;;;1.33;1.23;;;;;;;;;;12598235;28;20393;-79
2022/05/20 02:06:44;;;;;;;1.60;1.50;;;;;;;;;;12597641;28;20043;-79
2022/05/20 02:12:49;;;;;;;2.10;1.10;;;;;;;;;;12598041;28;20028;-79
2022/05/20 02:18:53;;;;;;;1.50;1.40;;;;;;;;;;12597206;28;20049;-79
2022/05/20 02:24:55;;;;;;;1.40;1.30;;;;;;;;;;12579004;28;20028;-79
2022/05/20 02:30:58;;;;;;;1.20;1.10;;;;;;;;;;12578304;28;20063;-79
2022/05/20 02:37:20;;;;;;;1.40;1.25;;;;;;;;;;12578289;28;20052;-79
2022/05/20 02:43:22;;;;;;;1.13;1.02;;;;;;;;;;12595794;28;20035;-79
2022/05/20 02:49:24;;;;;;;1.20;0.98;;;;;;;;;;12561058;28;20047;-79
2022/05/20 02:55:26;;;;;;;1.23;1.20;;;;;;;;;;12560910;28;20044;-79
2022/05/20 03:07:48;;;;;;;1.83;1.20;;;;;;;;;;12594911;28;20036;-78
2022/05/20 03:13:50;;;;;;;3.13;1.45;;;;;;;;;;12594859;28;20032;-79
2022/05/20 03:19:52;;;;;;;2.40;1.43;;;;;;;;;;12560007;28;20040;-79
2022/05/20 03:25:54;;;;;;;;;;;;;;;;;;12576637;28;20028;-78
2022/05/20 03:31:56;;;;;;;1.60;1.50;;;;;;;;;;12576306;28;19925;-79
2022/05/20 03:37:58;;;;;;;1.98;1.27;;;;;;;;;;12576011;28;20106;-79
2022/05/20 03:44:00;;;;;;;1.75;1.60;;;;;;;;;;12593605;28;20039;-79
2022/05/20 03:50:01;;;;;;;1.90;1.40;;;;;;;;;;12575995;28;20031;-78
2022/05/20 03:56:03;;;;;;;1.90;1.80;;;;;;;;;;12593789;28;20041;-78
2022/05/20 04:02:09;;;;;;;2.15;1.90;;;;;;;;;;12576081;28;20282;-79
2022/05/20 04:08:12;;;;;;;1.58;1.45;;;;;;;;;;12575268;28;20040;-79
2022/05/20 04:14:13;;;;;;;;;;;;;;;;;;12575604;28;20040;-79
2022/05/20 04:20:15;;;;;;;2.63;1.67;;;;;;;;;;12593138;28;20300;-79
2022/05/20 04:26:17;;;;;;;1.33;1.10;;;;;;;;;;12558229;28;20036;-79
2022/05/20 04:32:19;;;;;;;1.92;1.80;;;;;;;;;;12595660;28;20064;-79
2022/05/20 04:38:21;;;;;;;2.97;1.90;;;;;;;;;;12567401;28;20049;-80
2022/05/20 04:50:43;;;;;;;1.90;1.60;;;;;;;;;;12601588;28;20059;-79
2022/05/20 04:56:45;;;;;;;2.17;1.83;;;;;;;;;;12583005;28;20051;-79
2022/05/20 05:02:48;;;;;;;1.70;1.60;;;;;;;;;;12566428;28;20045;-79
2022/05/20 05:08:50;;;;;;;2.28;2.05;;;;;;;;;;12566602;28;20037;-79
2022/05/20 05:14:52;;;;;;;1.17;1.10;;;;;;;;;;12566657;28;20393;-79
2022/05/20 05:20:54;;;;;;;3.55;2.75;;;;;;;;;;12581859;28;20033;-79
2022/05/20 05:26:56;;;;;;;2.67;2.45;;;;;;;;;;12599533;28;20055;-80
2022/05/20 05:32:57;;;;;;;2.67;2.47;;;;;;;;;;12600015;28;20091;-79
2022/05/20 05:38:59;;;;;;;2.83;2.63;;;;;;;;;;12602633;28;20501;-79
2022/05/20 05:45:01;;;;;;;2.80;2.60;;;;;;;;;;12589826;28;20028;-79
2022/05/20 05:51:03;;;;;;;1.98;1.73;;;;;;;;;;12557685;28;20359;-79
2022/05/20 05:57:06;;;;;;;5.10;2.92;;;;;;;;;;12579806;28;20044;-79
2022/05/20 06:03:11;;;;;;;2.60;2.40;;;;;;;;;;12552831;28;20502;-79
2022/05/20 06:09:12;;;;;;;4.15;3.40;;;;;;;;;;12531817;28;20044;-80
2022/05/20 06:15:16;;;;;;;2.65;1.92;;;;;;;;;;12548970;28;20390;-77
2022/05/20 06:21:18;;;;;;;3.30;2.17;;;;;;;;;;12540117;28;20048;-83
2022/05/20 06:27:20;;;;;;;2.67;2.05;;;;;;;;;;12559623;28;20032;-83
2022/05/20 06:33:23;;;;;;;2.08;1.83;;;;;;;;;;12539841;28;20044;-82
2022/05/20 06:45:46;;;;;;;3.25;2.35;;;;;;;;;;12556258;28;20037;-81
2022/05/20 06:51:50;;;;;;;2.55;2.30;;;;;;;;;;12563598;28;20041;-82
2022/05/20 06:57:52;;;;;;;1.45;1.27;;;;;;;;;;12554157;28;20150;-82
2022/05/20 07:03:54;;;;;;;1.55;1.00;;;;;;;;;;12533895;28;20025;-81
2022/05/20 07:09:56;;;;;;;1.90;1.75;;;;;;;;;;12536114;28;20041;-82
2022/05/20 07:15:57;;;;;;;1.17;0.93;;;;;;;;;;12551474;28;20040;-82
2022/05/20 07:21:59;;;;;;;1.58;1.45;;;;;;;;;;12549596;28;20056;-81
2022/05/20 07:28:01;;;;;;;;;;;;;;;;;;12544567;28;20024;-82
2022/05/20 07:34:03;;;;;;;1.20;1.10;;;;;;;;;;12549546;28;19917;-82
2022/05/20 07:40:05;;;;;;;2.42;1.00;;;;;;;;;;12568069;28;20043;-81
2022/05/20 07:46:06;;;;;;;;;;;;;;;;;;12539399;28;20021;-80
2022/05/20 07:52:10;;;;;;;1.60;1.07;;;;;;;;;;12539539;28;19916;-81
2022/05/20 07:58:13;;;;;;;0.82;0.82;;;;;;;;;;12562538;28;20044;-81
2022/05/20 08:10:39;;;;;;;2.72;1.10;;;;;;;;;;12576633;28;20080;-79
2022/05/20 08:16:41;;;;;;;1.23;0.90;;;;;;;;;;12535468;28;20045;-80
2022/05/20 08:22:43;;;;;;;2.63;1.10;;;;;;;;;;12547034;28;20044;-79
2022/05/20 08:28:46;;;;;;;1.48;0.88;;;;;;;;;;12533040;28;20352;-79
2022/05/20 08:34:48;;;;;;;2.20;0.88;;;;;;;;;;12563680;28;20513;-79
2022/05/20 08:40:50;;;;;;;1.25;0.77;;;;;;;;;;12556266;28;20028;-78
2022/05/20 08:47:06;;;;;;;3.22;1.73;;;;;;;;;;12552183;28;20508;-79
2022/05/20 08:53:12;;;;;;;4.60;0.90;;;;;;;;;;12587233;28;20035;-81
2022/05/20 08:59:19;;;;;;;1.48;0.90;;;;;;;;;;12563418;28;20033;-86
2022/05/20 09:05:23;;;;;;;2.72;1.20;;;;;;;;;;12542657;28;20473;-80
2022/05/20 09:11:31;;;;;;;1.23;0.80;;;;;;;;;;12538898;28;20033;-85
2022/05/20 09:17:40;;;;;;;2.17;1.10;;;;;;;;;;12529634;28;20045;-81
2022/05/20 09:23:54;;;;;;;1.25;0.70;;;;;;;;;;12568073;28;20041;-82
2022/05/20 09:30:07;;;;;;;0.77;0.77;;;;;;;;;;12546364;28;20475;-81
2022/05/20 09:36:08;;;;;;;1.80;0.75;;;;;;;;;;12487974;28;20052;-81
2022/05/20 09:42:16;;;;;;;4.13;0.90;;;;;;;;;;12510494;28;20501;-84
2022/05/20 09:48:34;;;;;;;1.13;0.80;;;;;;;;;;12511871;28;20033;-82
2022/05/20 09:54:37;;;;;;;1.02;0.93;;;;;;;;;;12515155;28;20036;-85
2022/05/20 10:00:40;;;;;;;1.20;1.10;;;;;;;;;;12513938;28;20037;-83
2022/05/20 10:06:49;;;;;;;1.98;1.70;;;;;;;;;;12519786;28;20048;-82
2022/05/20 10:12:51;;;;;;;1.67;1.58;;;;;;;;;;12533469;28;20055;-81
2022/05/20 10:19:13;;;;;;;1.35;1.25;;;;;;;;;;12524821;28;20040;-81
2022/05/20 10:25:29;;;;;;;1.95;1.38;;;;;;;;;;12497716;28;20044;-82
2022/05/20 10:37:58;;;;;;;2.20;1.27;;;;;;;;;;12565318;28;20045;-81
2022/05/20 10:50:31;;;;;;;0.88;0.75;;;;;;;;;;12570774;28;20040;-81
2022/05/20 10:56:39;;;;;;;0.73;0.47;;;;;;;;;;12556599;28;20143;-80
2022/05/20 11:03:00;;;;;;;1.25;0.60;;;;;;;;;;12557369;28;20044;-81
2022/05/20 11:09:04;;;;;;;1.37;0.70;;;;;;;;;;12573701;28;20028;-80
2022/05/20 11:15:25;;;;;;;0.55;0.52;;;;;;;;;;12546168;28;20071;-79
2022/05/20 11:21:59;;;;;;;0.60;0.40;;;;;;;;;;12556685;28;20039;-79
2022/05/20 11:28:19;;;;;;;1.50;0.68;;;;;;;;;;12511382;28;20040;-78
2022/05/20 11:34:24;;;;;;;1.75;0.80;;;;;;;;;;12558388;28;20393;-78
2022/05/20 11:40:36;;;;;;;1.58;0.40;;;;;;;;;;12575509;28;20039;-78
2022/05/20 11:46:38;;;;;;;1.95;0.50;;;;;;;;;;12575490;28;20037;-77
2022/05/20 11:52:43;;;;;;;0.82;0.45;;;;;;;;;;12575974;28;20029;-78
2022/05/20 11:58:54;;;;;;;0.43;0.40;;;;;;;;;;12575440;28;20045;-79
2022/05/20 12:04:57;;;;;;;0.90;0.35;;;;;;;;;;12594045;28;20045;-79
2022/05/20 12:11:19;;;;;;;1.00;0.60;;;;;;;;;;12593097;28;20036;-82
2022/05/20 12:17:30;;;;;;;0.52;0.52;;;;;;;;;;12575488;28;20041;-79
2022/05/20 12:29:55;;;;;;;0.93;0.50;;;;;;;;;;12541459;28;20028;-79
2022/05/20 12:36:17;;;;;;;0.75;0.32;;;;;;;;;;12525328;28;20049;-78
2022/05/20 12:42:21;;;;;;;1.50;0.60;;;;;;;;;;12543562;28;20029;-79
2022/05/20 12:48:28;;;;;;;0.50;0.50;;;;;;;;;;12524992;28;20033;-79
2022/05/20 12:54:30;;;;;;;1.58;0.40;;;;;;;;;;12549144;28;20052;-79
2022/05/20 13:00:40;;;;;;;1.00;0.43;;;;;;;;;;12533800;28;20051;-78
2022/05/20 13:06:44;;;;;;;0.60;0.52;;;;;;;;;;12533896;28;20037;-78
2022/05/20 13:12:51;;;;;;;2.42;0.50;;;;;;;;;;12533555;28;20029;-78
2022/05/20 13:19:01;;;;;;;1.15;0.55;;;;;;;;;;12550828;28;20052;-79
2022/05/20 13:25:09;;;;;;;1.35;0.75;;;;;;;;;;12550887;28;20481;-78
2022/05/20 13:31:12;;;;;;;1.08;0.68;;;;;;;;;;12550218;28;20064;-79
2022/05/20 13:37:15;;;;;;;1.10;0.55;;;;;;;;;;12532274;28;20512;-78
2022/05/20 13:43:19;;;;;;;0.88;0.50;;;;;;;;;;12532753;28;20386;-78
2022/05/20 13:49:23;;;;;;;1.48;0.70;;;;;;;;;;12550453;28;20029;-78
2022/05/20 13:55:34;;;;;;;3.83;1.00;;;;;;;;;;12550026;28;20045;-79
2022/05/20 14:01:38;;;;;;;1.67;0.90;;;;;;;;;;12531915;28;20037;-78
2022/05/20 14:07:45;;;;;;;1.02;0.82;;;;;;;;;;12514081;28;20037;-79
2022/05/20 14:13:47;;;;;;;2.42;0.82;;;;;;;;;;12514565;28;20029;-78
2022/05/20 14:19:49;;;;;;;1.60;0.52;;;;;;;;;;12548985;28;20389;-79
2022/05/20 14:25:56;;;;;;;0.95;0.52;;;;;;;;;;12515592;28;20029;-79
2022/05/20 14:32:02;;;;;;;1.55;0.93;;;;;;;;;;12529758;28;20048;-79
2022/05/20 14:38:05;;;;;;;2.00;0.68;;;;;;;;;;12547471;28;20493;-79
2022/05/20 14:44:09;;;;;;;2.22;0.65;;;;;;;;;;12547269;28;20485;-79
2022/05/20 14:50:11;;;;;;;2.60;0.70;;;;;;;;;;12529451;28;20037;-79
2022/05/20 14:56:49;;;;;;;2.28;0.93;;;;;;;;;;12528299;28;20048;-79
2022/05/20 15:02:51;;;;;;;1.88;0.60;;;;;;;;;;12471224;28;20049;-77
2022/05/20 15:08:53;;;;;;;0.63;0.60;;;;;;;;;;12527355;28;20277;-78
2022/05/20 15:14:55;;;;;;;1.35;0.88;;;;;;;;;;12544220;28;20496;-77
2022/05/20 15:20:58;;;;;;;1.15;0.68;;;;;;;;;;12526739;28;20029;-78
2022/05/20 15:27:01;;;;;;;1.70;0.60;;;;;;;;;;12527022;28;20029;-78
2022/05/20 15:39:25;;;;;;;1.88;0.80;;;;;;;;;;12544963;28;20059;-78
2022/05/20 15:45:28;;;;;;;2.50;0.80;;;;;;;;;;12526123;28;20040;-78
2022/05/20 15:51:30;;;;;;;0.98;0.55;;;;;;;;;;12544096;28;20033;-78
2022/05/20 15:57:34;;;;;;;1.33;0.50;;;;;;;;;;12509314;28;20052;-78
2022/05/20 16:03:37;;;;;;;2.20;0.65;;;;;;;;;;12525687;28;20389;-78
2022/05/20 16:09:39;;;;;;;2.50;0.50;;;;;;;;;;12543371;28;20040;-78
2022/05/20 16:15:41;;;;;;;0.77;0.57;;;;;;;;;;12543160;28;20501;-78
2022/05/20 16:21:43;;;;;;;1.65;0.68;;;;;;;;;;12543156;28;20430;-78
2022/05/20 16:27:46;;;;;;;1.08;0.40;;;;;;;;;;12528824;28;20037;-78
2022/05/20 16:33:48;;;;;;;1.88;0.60;;;;;;;;;;12552624;28;20056;-78
2022/05/20 16:39:53;;;;;;;0.80;0.77;;;;;;;;;;12534582;28;20041;-79
2022/05/20 16:45:56;;;;;;;0.95;0.50;;;;;;;;;;12534407;28;20043;-79
2022/05/20 16:52:01;;;;;;;1.05;0.60;;;;;;;;;;12533762;28;20021;-79
2022/05/20 17:04:25;;;;;;;1.17;0.50;;;;;;;;;;12551118;28;20048;-78
2022/05/20 17:10:29;;;;;;;1.85;0.73;;;;;;;;;;12533629;28;20037;-79
2022/05/20 17:16:32;;;;;;;1.48;0.73;;;;;;;;;;12550371;28;20033;-78
2022/05/20 17:28:56;;;;;;;1.42;0.55;;;;;;;;;;12549968;28;20045;-78
2022/05/20 17:34:58;;;;;;;0.80;0.70;;;;;;;;;;12549914;28;20506;-78
2022/05/20 17:41:00;;;;;;;2.60;1.17;;;;;;;;;;12531007;28;20039;-78
2022/05/20 17:47:02;;;;;;;0.65;0.60;;;;;;;;;;12530716;28;20029;-78
2022/05/20 17:53:04;;;;;;;1.00;0.70;;;;;;;;;;12530894;28;20048;-78
2022/05/20 17:59:06;;;;;;;1.05;0.55;;;;;;;;;;12548585;28;20036;-78
2022/05/20 18:05:09;;;;;;;0.82;0.50;;;;;;;;;;12530084;28;20037;-78
2022/05/20 18:11:11;;;;;;;1.35;0.50;;;;;;;;;;12530100;28;20029;-78
2022/05/20 18:17:14;;;;;;;1.75;0.50;;;;;;;;;;12547636;28;20211;-78
2022/05/20 18:23:16;;;;;;;1.52;0.63;;;;;;;;;;12547372;28;20528;-78
2022/05/20 18:29:17;;;;;;;1.33;0.80;;;;;;;;;;12512887;28;20037;-78
2022/05/20 18:41:39;;;;;;;1.08;0.50;;;;;;;;;;12495915;28;20453;-78
2022/05/20 18:47:42;;;;;;;1.00;0.52;;;;;;;;;;12495467;28;20029;-78
2022/05/20 18:53:44;;;;;;;1.90;0.50;;;;;;;;;;12494286;28;20033;-78
2022/05/20 18:59:46;;;;;;;1.42;0.57;;;;;;;;;;12496399;28;20054;-78
2022/05/20 19:05:49;;;;;;;0.90;0.60;;;;;;;;;;12495234;28;20037;-77
2022/05/20 19:11:50;;;;;;;1.17;0.50;;;;;;;;;;12478043;28;20046;-78
2022/05/20 19:17:52;;;;;;;1.75;1.42;;;;;;;;;;12495182;28;20056;-78
2022/05/20 19:23:54;;;;;;;2.00;0.80;;;;;;;;;;12493821;28;20390;-78
2022/05/20 19:29:56;;;;;;;7.43;4.05;;;;;;;;;;12493895;28;20040;-78
2022/05/20 19:35:58;;;;;;;2.47;1.02;;;;;;;;;;12540563;28;20280;-78
2022/05/20 19:42:00;;;;;;;1.60;1.10;;;;;;;;;;12526359;28;20041;-78
2022/05/20 19:48:02;;;;;;;6.57;4.43;;;;;;;;;;12509691;28;20033;-78
2022/05/20 19:54:04;;;;;;;5.97;4.68;;;;;;;;;;12543845;28;20041;-78
2022/05/20 20:06:27;;;;;;;1.80;1.50;;;;;;;;;;12536057;28;20041;-78
2022/05/20 20:12:28;;;;;;;1.50;1.40;;;;;;;;;;12553627;28;20033;-78
2022/05/20 20:18:31;;;;;;;2.42;1.40;;;;;;;;;;12553355;28;20067;-78
2022/05/20 20:30:54;;;;;;;1.50;1.10;;;;;;;;;;12552665;28;20478;-78
2022/05/20 20:36:55;;;;;;;1.33;1.00;;;;;;;;;;12552380;28;20494;-78
2022/05/20 20:43:01;;;;;;;0.90;0.80;;;;;;;;;;12552246;28;20039;-78
2022/05/20 20:49:04;;;;;;;1.23;0.90;;;;;;;;;;12534488;28;20036;-78
2022/05/20 20:55:06;;;;;;;1.05;0.55;;;;;;;;;;12551442;28;20040;-78
2022/05/20 21:01:07;;;;;;;1.40;0.93;;;;;;;;;;12533831;28;20381;-77
2022/05/20 21:07:09;;;;;;;0.45;0.45;;;;;;;;;;12533595;28;20048;-78
2022/05/20 21:13:12;;;;;;;0.77;0.77;;;;;;;;;;12531731;28;20028;-78
2022/05/20 21:19:14;;;;;;;2.25;0.95;;;;;;;;;;12532859;28;20048;-78
2022/05/20 21:25:16;;;;;;;1.48;0.95;;;;;;;;;;12532720;28;20055;-78
2022/05/20 21:31:18;;;;;;;1.65;1.05;;;;;;;;;;12532001;28;20057;-78
2022/05/20 21:37:20;;;;;;;1.00;0.80;;;;;;;;;;12549969;28;20048;-78
2022/05/20 21:43:22;;;;;;;1.33;0.93;;;;;;;;;;12549339;28;20021;-78
2022/05/20 21:49:23;;;;;;;;;;;;;;;;;;12549310;28;20055;-78
2022/05/20 21:55:25;;;;;;;1.17;1.07;;;;;;;;;;12531177;28;20361;-78
2022/05/20 22:14:09;;;;;;;1.00;0.80;;;;;;;;;;12530565;28;20044;-78
2022/05/20 22:20:11;;;;;;;1.65;1.02;;;;;;;;;;12547521;28;20048;-78
2022/05/20 22:26:14;;;;;;;1.85;1.13;;;;;;;;;;12513403;28;20104;-77
2022/05/20 22:32:16;;;;;;;1.20;1.10;;;;;;;;;;12513040;28;20402;-78
2022/05/20 22:38:17;;;;;;;0.60;0.60;;;;;;;;;;12529238;28;20059;-78
2022/05/20 22:44:19;;;;;;;1.00;0.98;;;;;;;;;;12546906;28;20033;-78
2022/05/20 22:50:21;;;;;;;;;;;;;;;;;;12512611;28;20029;-78
2022/05/20 22:56:23;;;;;;;1.10;0.90;;;;;;;;;;12528340;28;19924;-78
2022/05/20 23:02:24;;;;;;;2.40;1.23;;;;;;;;;;12546333;28;20036;-78
2022/05/20 23:08:26;;;;;;;2.03;1.20;;;;;;;;;;12545724;28;20044;-78
2022/05/20 23:14:28;;;;;;;1.30;1.20;;;;;;;;;;12511260;28;20394;-78
2022/05/20 23:20:30;;;;;;;3.42;1.15;;;;;;;;;;12527615;28;20064;-78
2022/05/20 23:26:31;;;;;;;2.53;1.40;;;;;;;;;;12545226;28;20052;-79
2022/05/20 23:32:33;;;;;;;1.80;1.10;;;;;;;;;;12544733;28;20049;-78
2022/05/20 23:38:35;;;;;;;1.45;1.10;;;;;;;;;;12526282;28;20410;-79
2022/05/20 23:44:37;;;;;;;1.05;0.93;;;;;;;;;;12526646;28;20036;-79
2022/05/20 23:50:39;;;;;;;0.88;0.88;;;;;;;;;;12526285;28;20032;-79
